createdAt,value
2023-05-02T00:01:25.228Z,7.33
2023-05-02T00:03:51.998Z,7.29
2023-05-02T00:06:19.117Z,7.26
2023-05-02T00:08:46.312Z,7.22
2023-05-02T00:11:12.938Z,7.19
2023-05-02T00:13:39.585Z,7.17
2023-05-02T00:16:06.515Z,7.14
2023-05-02T00:18:33.321Z,7.12
2023-05-02T00:20:59.974Z,7.09
2023-05-02T00:23:26.992Z,7.03
2023-05-02T00:25:53.604Z,7.00
2023-05-02T00:28:20.253Z,6.93
2023-05-02T00:30:47.285Z,6.87
2023-05-02T00:33:15.894Z,6.84
2023-05-02T00:35:42.793Z,6.79
2023-05-02T00:38:09.650Z,6.74
2023-05-02T00:40:45.196Z,6.69
2023-05-02T00:43:12.253Z,6.59
2023-05-02T00:45:40.951Z,6.48
2023-05-02T00:48:09.309Z,6.46
2023-05-02T00:50:41.836Z,6.33
2023-05-02T00:53:09.806Z,6.26
2023-05-02T00:55:36.994Z,6.18
2023-05-02T00:58:09.034Z,6.07
2023-05-02T01:01:00.353Z,5.97
2023-05-02T01:03:37.685Z,5.84
2023-05-02T01:06:36.965Z,5.78
2023-05-02T01:09:26.729Z,5.65
2023-05-02T01:12:05.572Z,5.60
2023-05-02T01:14:36.715Z,5.54
2023-05-02T01:17:06.607Z,5.56
2023-05-02T01:19:36.853Z,5.59
2023-05-02T01:22:09.603Z,5.62
2023-05-02T01:24:49.205Z,5.69
2023-05-02T01:27:31.143Z,5.65
2023-05-02T01:29:59.719Z,5.57
2023-05-02T01:32:28.276Z,5.55
2023-05-02T01:34:57.337Z,5.52
2023-05-02T01:37:26.768Z,5.48
2023-05-02T01:39:56.204Z,5.39
2023-05-02T01:42:25.747Z,5.30
2023-05-02T01:44:55.142Z,5.23
2023-05-02T01:47:23.162Z,5.28
2023-05-02T01:49:50.031Z,5.25
2023-05-02T01:52:19.489Z,5.25
2023-05-02T01:54:46.888Z,5.20
2023-05-02T01:57:16.734Z,5.16
2023-05-02T01:59:44.763Z,5.13
2023-05-02T02:02:13.981Z,5.16
2023-05-02T02:04:41.893Z,5.07
2023-05-02T02:07:11.653Z,4.98
2023-05-02T02:09:38.427Z,4.98
2023-05-02T02:12:28.437Z,5.02
2023-05-02T02:15:06.963Z,5.05
2023-05-02T02:18:13.861Z,4.97
2023-05-02T02:20:44.045Z,4.88
2023-05-02T02:23:12.108Z,4.77
2023-05-02T02:25:39.725Z,4.66
2023-05-02T02:28:07.667Z,4.65
2023-05-02T02:30:34.685Z,4.68
2023-05-02T02:33:01.465Z,4.73
2023-05-02T02:35:37.678Z,4.72
2023-05-02T02:38:40.822Z,4.65
2023-05-02T02:41:16.671Z,4.60
2023-05-02T02:43:53.837Z,4.65
2023-05-02T02:46:42.436Z,4.62
2023-05-02T02:49:25.815Z,4.54
2023-05-02T02:52:06.137Z,4.57
2023-05-02T02:54:41.955Z,4.63
2023-05-02T02:57:17.951Z,4.63
2023-05-02T02:59:58.336Z,4.69
2023-05-02T03:02:31.034Z,4.74
2023-05-02T03:04:58.738Z,4.65
2023-05-02T03:07:27.951Z,4.63
2023-05-02T03:09:54.653Z,4.63
2023-05-02T03:12:21.378Z,4.58
2023-05-02T03:14:48.359Z,4.50
2023-05-02T03:17:15.072Z,4.47
2023-05-02T03:19:41.734Z,4.41
2023-05-02T03:22:08.399Z,4.28
2023-05-02T03:24:35.045Z,4.21
2023-05-02T03:27:01.863Z,4.16
2023-05-02T03:29:28.856Z,4.10
2023-05-02T03:31:55.698Z,4.13
2023-05-02T03:34:22.423Z,4.18
2023-05-02T03:36:49.314Z,4.23
2023-05-02T03:39:16.459Z,4.21
2023-05-02T03:41:43.989Z,4.16
2023-05-02T03:44:10.816Z,4.17
2023-05-02T03:46:37.642Z,4.16
2023-05-02T03:49:04.350Z,4.19
2023-05-02T03:51:30.972Z,4.17
2023-05-02T03:53:58.580Z,4.14
2023-05-02T03:56:25.255Z,4.10
2023-05-02T03:58:51.897Z,4.11
2023-05-02T04:01:18.711Z,4.08
2023-05-02T04:03:45.484Z,4.10
2023-05-02T04:06:13.263Z,4.02
2023-05-02T04:08:40.068Z,3.91
2023-05-02T04:11:07.270Z,3.87
2023-05-02T04:13:34.256Z,3.89
2023-05-02T04:16:00.925Z,3.88
2023-05-02T04:18:27.560Z,3.83
2023-05-02T04:20:54.186Z,3.80
2023-05-02T04:23:20.860Z,3.78
2023-05-02T04:25:55.178Z,3.78
2023-05-02T04:28:22.876Z,3.72
2023-05-02T04:30:50.772Z,3.68
2023-05-02T04:33:18.698Z,3.65
2023-05-02T04:35:45.570Z,3.70
2023-05-02T04:38:12.326Z,3.68
2023-05-02T04:40:39.071Z,3.70
2023-05-02T04:43:05.858Z,3.64
2023-05-02T04:45:32.828Z,3.68
2023-05-02T04:47:59.645Z,3.70
2023-05-02T04:50:28.223Z,3.74
2023-05-02T04:52:55.241Z,3.78
2023-05-02T04:55:22.094Z,3.82
2023-05-02T04:57:48.748Z,3.87
2023-05-02T05:00:15.956Z,3.85
2023-05-02T05:02:43.370Z,3.79
2023-05-02T05:05:10.251Z,3.75
2023-05-02T05:07:36.989Z,3.74
2023-05-02T05:10:03.893Z,3.69
2023-05-02T05:12:30.594Z,3.69
2023-05-02T05:14:57.347Z,3.70
2023-05-02T05:17:24.297Z,3.71
2023-05-02T05:19:50.921Z,3.79
2023-05-02T05:22:17.810Z,3.86
2023-05-02T05:24:52.630Z,3.86
2023-05-02T05:27:19.262Z,3.89
2023-05-02T05:29:46.056Z,3.85
2023-05-02T05:32:12.906Z,3.80
2023-05-02T05:34:39.552Z,3.86
2023-05-02T05:37:06.432Z,3.85
2023-05-02T05:39:33.294Z,3.87
2023-05-02T05:42:00.801Z,3.83
2023-05-02T05:44:27.493Z,3.83
2023-05-02T05:46:54.785Z,3.86
2023-05-02T05:49:22.236Z,3.89
2023-05-02T05:51:48.921Z,3.88
2023-05-02T05:54:17.363Z,3.90
2023-05-02T05:56:44.810Z,3.92
2023-05-02T05:59:11.406Z,3.86
2023-05-02T06:01:38.221Z,3.92
2023-05-02T06:04:05.340Z,4.00
2023-05-02T06:06:32.598Z,4.04
2023-05-02T06:08:59.696Z,4.08
2023-05-02T06:11:26.711Z,4.06
2023-05-02T06:13:53.925Z,4.09
2023-05-02T06:16:21.008Z,4.05
2023-05-02T06:18:48.028Z,4.04
2023-05-02T06:21:14.701Z,4.04
2023-05-02T06:23:41.786Z,4.09
2023-05-02T06:26:10.122Z,4.14
2023-05-02T06:28:36.953Z,4.24
2023-05-02T06:31:06.094Z,4.26
2023-05-02T06:33:33.849Z,4.25
2023-05-02T06:36:01.830Z,4.20
2023-05-02T06:38:29.265Z,4.18
2023-05-02T06:40:56.010Z,4.19
2023-05-02T06:43:22.732Z,4.16
2023-05-02T06:45:52.402Z,4.16
2023-05-02T06:48:19.321Z,4.23
2023-05-02T06:50:46.227Z,4.23
2023-05-02T06:53:12.899Z,4.25
2023-05-02T06:55:39.637Z,4.34
2023-05-02T06:58:06.346Z,4.38
2023-05-02T07:00:33.378Z,4.33
2023-05-02T07:03:00.145Z,4.36
2023-05-02T07:05:27.016Z,4.38
2023-05-02T07:07:53.631Z,4.43
2023-05-02T07:10:20.511Z,4.46
2023-05-02T07:12:47.187Z,4.39
2023-05-02T07:15:13.988Z,4.42
2023-05-02T07:17:41.120Z,4.46
2023-05-02T07:20:08.870Z,4.54
2023-05-02T07:22:35.560Z,4.58
2023-05-02T07:25:03.076Z,4.64
2023-05-02T07:27:29.756Z,4.65
2023-05-02T07:29:56.524Z,4.58
2023-05-02T07:32:25.320Z,4.63
2023-05-02T07:34:56.306Z,4.71
2023-05-02T07:37:23.342Z,4.83
2023-05-02T07:39:50.052Z,4.94
2023-05-02T07:42:16.794Z,5.00
2023-05-02T07:44:43.473Z,5.01
2023-05-02T07:47:10.202Z,5.18
2023-05-02T07:49:37.005Z,5.31
2023-05-02T07:52:04.658Z,5.46
2023-05-02T07:54:31.316Z,5.56
2023-05-02T07:57:02.300Z,5.66
2023-05-02T07:59:31.227Z,5.78
2023-05-02T08:01:58.143Z,5.84
2023-05-02T08:04:25.216Z,5.74
2023-05-02T08:06:52.036Z,5.74
2023-05-02T08:09:18.766Z,5.75
2023-05-02T08:11:45.529Z,5.72
2023-05-02T08:14:12.319Z,5.78
2023-05-02T08:16:39.117Z,5.81
2023-05-02T08:19:05.947Z,5.85
2023-05-02T08:21:32.836Z,5.72
2023-05-02T08:24:00.380Z,5.70
2023-05-02T08:26:28.052Z,5.56
2023-05-02T08:28:55.680Z,5.52
2023-05-02T08:31:22.578Z,5.59
2023-05-02T08:33:49.416Z,5.76
2023-05-02T08:36:17.939Z,5.81
2023-05-02T08:38:46.020Z,5.83
2023-05-02T08:41:18.241Z,5.87
2023-05-02T08:43:48.085Z,5.87
2023-05-02T08:46:16.707Z,5.87
2023-05-02T08:48:45.787Z,5.90
2023-05-02T08:51:15.839Z,5.93
2023-05-02T08:53:43.222Z,5.92
2023-05-02T08:56:11.670Z,5.88
2023-05-02T08:58:40.339Z,5.85
2023-05-02T09:01:15.403Z,5.88
2023-05-02T09:03:45.005Z,6.03
2023-05-02T09:06:22.675Z,6.05
2023-05-02T09:08:50.898Z,6.09
2023-05-02T09:11:18.264Z,6.07
2023-05-02T09:13:52.247Z,6.19
2023-05-02T09:16:27.136Z,6.50
2023-05-02T09:18:58.675Z,6.78
2023-05-02T09:21:34.868Z,6.96
2023-05-02T09:24:03.366Z,7.07
2023-05-02T09:26:34.297Z,7.10
2023-05-02T09:29:02.805Z,7.05
2023-05-02T09:34:14.958Z,7.19
2023-05-02T09:36:47.042Z,7.20
2023-05-02T09:39:15.815Z,7.20
2023-05-02T09:41:43.791Z,7.21
2023-05-02T09:44:12.477Z,7.22
2023-05-02T09:46:44.570Z,7.24
2023-05-02T09:49:11.525Z,7.18
2023-05-02T09:51:38.401Z,7.12
2023-05-02T09:54:05.087Z,7.19
2023-05-02T09:56:32.005Z,7.27
2023-05-02T09:59:17.258Z,7.24
2023-05-02T10:01:43.931Z,7.22
2023-05-02T10:04:18.917Z,7.15
2023-05-02T10:06:46.212Z,7.07
2023-05-02T10:09:19.599Z,7.19
2023-05-02T10:11:54.059Z,7.29
2023-05-02T10:14:22.783Z,7.60
2023-05-02T10:17:11.177Z,7.86
2023-05-02T10:20:01.436Z,7.95
2023-05-02T10:22:28.659Z,8.02
2023-05-02T10:24:58.467Z,8.17
2023-05-02T10:27:25.773Z,8.36
2023-05-02T10:29:53.033Z,8.47
2023-05-02T10:32:22.703Z,8.51
2023-05-02T10:34:51.861Z,8.52
2023-05-02T10:37:19.580Z,8.52
2023-05-02T10:39:46.308Z,8.51
2023-05-02T10:42:14.392Z,8.42
2023-05-02T10:44:41.758Z,8.32
2023-05-02T10:47:24.624Z,8.21
2023-05-02T10:49:56.807Z,7.92
2023-05-02T10:52:34.416Z,7.49
2023-05-02T10:55:22.511Z,7.17
2023-05-02T10:58:01.092Z,7.10
2023-05-02T11:00:30.449Z,7.15
2023-05-02T11:02:57.433Z,7.31
2023-05-02T11:05:25.636Z,7.63
2023-05-02T11:08:18.633Z,8.01
2023-05-02T11:10:47.396Z,8.39
2023-05-02T11:13:14.160Z,8.60
2023-05-02T11:15:41.025Z,8.73
2023-05-02T11:18:14.621Z,8.88
2023-05-02T11:20:43.316Z,9.02
2023-05-02T11:23:16.399Z,9.11
2023-05-02T11:25:45.287Z,9.28
2023-05-02T11:28:36.883Z,9.52
2023-05-02T11:31:05.107Z,9.67
2023-05-02T11:33:31.993Z,9.76
2023-05-02T11:35:58.897Z,9.84
2023-05-02T11:38:26.833Z,9.87
2023-05-02T11:40:59.416Z,9.88
2023-05-02T11:43:31.267Z,9.93
2023-05-02T11:46:00.315Z,10.06
2023-05-02T11:48:28.118Z,10.15
2023-05-02T11:51:03.738Z,10.25
2023-05-02T11:53:31.481Z,10.38
2023-05-02T11:56:00.243Z,10.49
2023-05-02T11:58:33.437Z,10.53
2023-05-02T12:01:14.744Z,10.58
2023-05-02T12:03:41.968Z,10.54
2023-05-02T12:06:11.663Z,10.57
2023-05-02T12:08:39.993Z,10.54
2023-05-02T12:11:06.945Z,10.63
2023-05-02T12:13:34.057Z,10.66
2023-05-02T12:16:01.280Z,10.73
2023-05-02T12:18:28.480Z,10.73
2023-05-02T12:20:56.672Z,10.80
2023-05-02T12:23:26.353Z,10.99
2023-05-02T12:25:53.380Z,11.13
2023-05-02T12:28:21.048Z,11.27
2023-05-02T12:30:49.748Z,11.26
2023-05-02T12:33:18.392Z,11.19
2023-05-02T12:35:49.048Z,11.15
2023-05-02T12:38:18.206Z,11.22
2023-05-02T12:40:48.841Z,11.36
2023-05-02T12:43:15.702Z,11.47
2023-05-02T12:45:43.793Z,11.50
2023-05-02T12:48:27.394Z,11.61
2023-05-02T12:50:55.442Z,11.68
2023-05-02T12:53:41.793Z,11.68
2023-05-02T12:56:09.003Z,11.75
2023-05-02T12:58:43.096Z,11.84
2023-05-02T13:01:10.662Z,11.84
2023-05-02T13:03:37.567Z,11.82
2023-05-02T13:06:04.488Z,11.90
2023-05-02T13:08:33.408Z,11.84
2023-05-02T13:11:00.922Z,11.79
2023-05-02T13:13:28.052Z,11.73
2023-05-02T13:15:54.749Z,11.57
2023-05-02T13:18:21.775Z,11.38
2023-05-02T13:20:48.564Z,11.29
2023-05-02T13:23:16.963Z,11.32
2023-05-02T13:25:43.734Z,11.36
2023-05-02T13:28:10.456Z,11.32
2023-05-02T13:30:37.151Z,11.32
2023-05-02T13:33:03.947Z,11.32
2023-05-02T13:35:31.088Z,11.31
2023-05-02T13:37:58.890Z,11.23
2023-05-02T13:40:25.824Z,11.19
2023-05-02T13:42:52.456Z,11.10
2023-05-02T13:45:19.119Z,11.06
2023-05-02T13:47:45.803Z,11.02
2023-05-02T13:50:12.670Z,10.95
2023-05-02T13:52:39.348Z,11.05
2023-05-02T13:55:06.829Z,11.29
2023-05-02T13:57:33.505Z,11.40
2023-05-02T14:00:00.407Z,11.41
2023-05-02T14:02:27.649Z,11.37
2023-05-02T14:04:54.418Z,11.30
2023-05-02T14:07:21.074Z,11.23
2023-05-02T14:09:47.759Z,11.21
2023-05-02T14:12:14.402Z,11.20
2023-05-02T14:14:41.064Z,11.11
2023-05-02T14:17:07.792Z,10.99
2023-05-02T14:19:34.524Z,10.86
2023-05-02T14:22:01.235Z,10.76
2023-05-02T14:24:27.939Z,10.74
2023-05-02T14:26:54.582Z,10.80
2023-05-02T14:29:21.270Z,10.90
2023-05-02T14:31:47.981Z,11.06
2023-05-02T14:34:14.659Z,11.27
2023-05-02T14:36:41.378Z,11.41
2023-05-02T14:39:08.016Z,11.53
2023-05-02T14:41:34.630Z,11.52
2023-05-02T14:44:01.330Z,11.36
2023-05-02T14:46:28.036Z,11.21
2023-05-02T14:48:54.693Z,11.03
2023-05-02T14:51:21.368Z,10.86
2023-05-02T14:53:48.970Z,10.73
2023-05-02T14:56:17.320Z,10.59
2023-05-02T14:58:44.247Z,10.53
2023-05-02T15:01:21.831Z,10.56
2023-05-02T15:04:05.257Z,10.50
2023-05-02T15:06:33.193Z,10.52
2023-05-02T15:08:59.986Z,10.68
2023-05-02T15:11:26.821Z,10.72
2023-05-02T15:13:53.452Z,10.65
2023-05-02T15:16:20.232Z,10.63
2023-05-02T15:18:47.050Z,10.61
2023-05-02T15:21:13.648Z,10.64
2023-05-02T15:23:40.608Z,10.65
2023-05-02T15:26:07.254Z,10.59
2023-05-02T15:28:33.901Z,10.60
2023-05-02T15:31:00.533Z,10.66
2023-05-02T15:33:27.226Z,10.71
2023-05-02T15:35:55.919Z,10.80
2023-05-02T15:38:22.740Z,10.87
2023-05-02T15:40:59.588Z,10.89
2023-05-02T15:43:26.910Z,10.94
2023-05-02T15:45:55.194Z,11.13
2023-05-02T15:48:22.948Z,11.44
2023-05-02T15:50:49.889Z,11.74
2023-05-02T15:53:17.071Z,11.91
2023-05-02T15:55:45.928Z,12.09
2023-05-02T15:58:13.171Z,12.31
2023-05-02T16:00:40.065Z,12.54
2023-05-02T16:03:06.843Z,12.53
2023-05-02T16:05:34.094Z,12.53
2023-05-02T16:08:00.952Z,12.69
2023-05-02T16:10:27.693Z,12.89
2023-05-02T16:12:54.575Z,12.90
2023-05-02T16:15:21.845Z,12.84
2023-05-02T16:17:49.169Z,12.73
2023-05-02T16:20:16.904Z,12.80
2023-05-02T16:22:47.730Z,12.87
2023-05-02T16:25:16.199Z,12.95
2023-05-02T16:27:43.448Z,12.96
2023-05-02T16:30:10.827Z,12.84
2023-05-02T16:32:37.853Z,12.72
2023-05-02T16:35:07.423Z,12.65
2023-05-02T16:37:35.089Z,12.49
2023-05-02T16:40:02.401Z,12.24
2023-05-02T16:42:29.615Z,12.02
2023-05-02T16:44:57.557Z,11.84
2023-05-02T16:47:24.253Z,11.66
2023-05-02T16:49:58.454Z,11.46
2023-05-02T16:52:26.005Z,11.30
2023-05-02T16:54:53.058Z,11.23
2023-05-02T16:57:21.184Z,11.17
2023-05-02T16:59:51.245Z,11.10
2023-05-02T17:02:20.117Z,11.08
2023-05-02T17:04:46.882Z,11.07
2023-05-02T17:07:13.589Z,11.04
2023-05-02T17:09:42.090Z,11.02
2023-05-02T17:12:13.229Z,11.04
2023-05-02T17:14:42.383Z,11.04
2023-05-02T17:17:10.428Z,11.07
2023-05-02T17:19:37.332Z,11.17
2023-05-02T17:22:05.310Z,11.20
2023-05-02T17:24:33.252Z,11.14
2023-05-02T17:27:00.966Z,11.11
2023-05-02T17:29:27.664Z,11.03
2023-05-02T17:31:57.055Z,10.99
2023-05-02T17:34:28.467Z,10.96
2023-05-02T17:36:55.129Z,10.90
2023-05-02T17:39:22.907Z,10.84
2023-05-02T17:41:49.663Z,10.80
2023-05-02T17:44:16.511Z,10.73
2023-05-02T17:46:43.422Z,10.67
2023-05-02T17:49:10.303Z,10.63
2023-05-02T17:51:36.937Z,10.68
2023-05-02T17:54:03.816Z,10.68
2023-05-02T17:56:30.757Z,10.65
2023-05-02T17:58:57.432Z,10.65
2023-05-02T18:01:24.139Z,10.65
2023-05-02T18:03:50.912Z,10.66
2023-05-02T18:06:18.798Z,10.65
2023-05-02T18:08:45.853Z,10.60
2023-05-02T18:11:16.761Z,10.56
2023-05-02T18:13:44.091Z,10.51
2023-05-02T18:16:11.008Z,10.39
2023-05-02T18:18:38.619Z,10.25
2023-05-02T18:21:06.211Z,10.14
2023-05-02T18:23:33.909Z,10.08
2023-05-02T18:26:00.688Z,10.00
2023-05-02T18:28:27.592Z,9.96
2023-05-02T18:30:54.226Z,9.94
2023-05-02T18:33:20.955Z,9.89
2023-05-02T18:35:50.747Z,9.83
2023-05-02T18:38:18.433Z,9.81
2023-05-02T18:40:45.358Z,9.81
2023-05-02T18:43:12.081Z,9.79
2023-05-02T18:45:38.815Z,9.71
2023-05-02T18:48:05.831Z,9.62
2023-05-02T18:50:32.577Z,9.55
2023-05-02T18:52:59.220Z,9.54
2023-05-02T18:55:25.938Z,9.52
2023-05-02T18:57:52.612Z,9.47
2023-05-02T19:00:20.464Z,9.45
2023-05-02T19:02:48.047Z,9.43
2023-05-02T19:05:15.197Z,9.39
2023-05-02T19:07:42.409Z,9.36
2023-05-02T19:10:11.022Z,9.32
2023-05-02T19:12:38.080Z,9.26
2023-05-02T19:15:06.633Z,9.23
2023-05-02T19:17:33.776Z,9.21
2023-05-02T19:20:00.535Z,9.18
2023-05-02T19:22:27.748Z,9.16
2023-05-02T19:24:54.693Z,9.14
2023-05-02T19:27:21.323Z,9.12
2023-05-02T19:29:47.953Z,9.11
2023-05-02T19:32:15.013Z,9.11
2023-05-02T19:34:42.115Z,9.08
2023-05-02T19:37:08.854Z,9.05
2023-05-02T19:39:35.501Z,9.04
2023-05-02T19:42:03.218Z,8.98
2023-05-02T19:44:30.551Z,8.96
2023-05-02T19:46:57.172Z,8.99
2023-05-02T19:49:23.850Z,8.98
2023-05-02T19:51:50.526Z,8.96
2023-05-02T19:54:17.163Z,8.95
2023-05-02T19:56:43.785Z,8.94
2023-05-02T19:59:10.508Z,8.94
2023-05-02T20:01:37.216Z,8.94
2023-05-02T20:04:03.918Z,8.95
2023-05-02T20:06:32.341Z,8.88
2023-05-02T20:08:59.181Z,8.84
2023-05-02T20:11:26.325Z,8.83
2023-05-02T20:13:54.063Z,8.83
2023-05-02T20:16:21.208Z,8.84
2023-05-02T20:18:47.995Z,8.84
2023-05-02T20:21:15.027Z,8.83
2023-05-02T20:23:43.620Z,8.81
2023-05-02T20:26:10.594Z,8.79
2023-05-02T20:28:37.888Z,8.70
2023-05-02T20:31:04.655Z,8.62
2023-05-02T20:33:43.824Z,8.56
2023-05-02T20:36:12.680Z,8.56
2023-05-02T20:38:42.369Z,8.54
2023-05-02T20:41:12.648Z,8.55
2023-05-02T20:43:41.257Z,8.54
2023-05-02T20:46:12.265Z,8.50
2023-05-02T20:48:39.036Z,8.43
2023-05-02T20:51:05.734Z,8.39
2023-05-02T20:53:32.407Z,8.39
2023-05-02T20:55:59.078Z,8.40
2023-05-02T20:58:26.051Z,8.38
2023-05-02T21:00:52.799Z,8.36
2023-05-02T21:03:19.873Z,8.37
2023-05-02T21:05:53.353Z,8.38
2023-05-02T21:08:20.595Z,8.41
2023-05-02T21:10:47.572Z,8.41
2023-05-02T21:13:14.305Z,8.43
2023-05-02T21:15:41.267Z,8.43
2023-05-02T21:18:08.054Z,8.44
2023-05-02T21:20:36.007Z,8.41
2023-05-02T21:23:02.728Z,8.36
2023-05-02T21:25:29.515Z,8.33
2023-05-02T21:27:56.580Z,8.27
2023-05-02T21:30:24.518Z,8.19
2023-05-02T21:32:51.475Z,8.18
2023-05-02T21:35:18.189Z,8.12
2023-05-02T21:37:45.038Z,8.02
2023-05-02T21:40:12.327Z,7.96
2023-05-02T21:42:39.086Z,7.94
2023-05-02T21:45:06.752Z,7.91
2023-05-02T21:47:33.573Z,7.89
2023-05-02T21:50:00.627Z,7.87
2023-05-02T21:52:27.448Z,7.88
2023-05-02T21:54:54.393Z,7.84
2023-05-02T21:57:21.287Z,7.82
2023-05-02T21:59:48.244Z,7.80
2023-05-02T22:02:15.091Z,7.81
2023-05-02T22:04:41.806Z,7.77
2023-05-02T22:07:08.475Z,7.73
2023-05-02T22:09:35.176Z,7.73
2023-05-02T22:12:03.003Z,7.67
2023-05-02T22:14:37.640Z,7.64
2023-05-02T22:17:11.673Z,7.61
2023-05-02T22:19:39.331Z,7.60
2023-05-02T22:22:06.745Z,7.63
2023-05-02T22:24:33.990Z,7.64
2023-05-02T22:27:00.896Z,7.63
2023-05-02T22:29:27.584Z,7.59
2023-05-02T22:31:54.305Z,7.54
2023-05-02T22:34:21.004Z,7.55
2023-05-02T22:36:47.667Z,7.54
2023-05-02T22:39:15.733Z,7.56
2023-05-02T22:41:43.088Z,7.57
2023-05-02T22:44:11.074Z,7.56
2023-05-02T22:46:38.904Z,7.56
2023-05-02T22:49:10.415Z,7.53
2023-05-02T22:51:41.590Z,7.45
2023-05-02T22:54:08.530Z,7.30
2023-05-02T22:56:35.381Z,7.23
2023-05-02T22:59:02.102Z,7.13
2023-05-02T23:01:29.071Z,7.08
2023-05-02T23:03:55.988Z,7.03
2023-05-02T23:06:22.942Z,7.05
2023-05-02T23:08:49.621Z,7.03
2023-05-02T23:11:16.302Z,7.04
2023-05-02T23:13:42.953Z,6.98
2023-05-02T23:16:09.658Z,6.95
2023-05-02T23:18:36.400Z,6.95
2023-05-02T23:21:04.261Z,6.93
2023-05-02T23:23:31.251Z,6.91
2023-05-02T23:25:58.269Z,6.92
2023-05-02T23:28:26.095Z,6.92
2023-05-02T23:30:53.694Z,6.85
2023-05-02T23:33:20.588Z,6.77
2023-05-02T23:35:47.438Z,6.73
2023-05-02T23:38:14.175Z,6.67
2023-05-02T23:40:41.165Z,6.56
2023-05-02T23:43:08.933Z,6.49
2023-05-02T23:45:35.676Z,6.47
2023-05-02T23:48:02.414Z,6.50
2023-05-02T23:50:29.107Z,6.51
2023-05-02T23:52:55.720Z,6.55
2023-05-02T23:55:22.333Z,6.57
2023-05-02T23:57:49.028Z,6.56
